sensor_id;sensor_type;location;lat;lon;timestamp;pressure;altitude;pressure_sealevel;temperature;humidity
27358;BME280;14831;50.474;7.616;2023-12-14T00:03:23;96940;;;1.8;100.0
27358;BME280;14831;50.474;7.616;2023-12-14T00:08:23;96950;;;1.9;100.0
27358;BME280;14831;50.474;7.616;2023-12-14T00:13:23;96960;;;2.0;100.0
27358;BME280;14831;50.474;7.616;2023-12-14T00:18:23;96970;;;2.0;100.0
27358;BME280;14831;50.474;7.616;2023-12-14T00:23:23;96970;;;2.1;100.0
27358;BME280;14831;50.474;7.616;2023-12-14T00:28:23;96990;;;2.3;100.0
27358;BME280;14831;50.474;7.616;2023-12-14T00:33:23;96990;;;2.3;100.0
27358;BME280;14831;50.474;7.616;2023-12-14T00:38:23;97010;;;2.0;100.0
27358;BME280;14831;50.474;7.616;2023-12-14T00:43:23;97010;;;1.7;100.0
27358;BME280;14831;50.474;7.616;2023-12-14T00:48:23;97020;;;1.5;100.0
27358;BME280;14831;50.474;7.616;2023-12-14T00:53:23;97030;;;1.8;100.0
27358;BME280;14831;50.474;7.616;2023-12-14T00:58:23;97030;;;2.1;100.0
27358;BME280;14831;50.474;7.616;2023-12-14T01:03:23;97030;;;2.3;100.0
27358;BME280;14831;50.474;7.616;2023-12-14T01:08:23;97040;;;2.4;100.0
27358;BME280;14831;50.474;7.616;2023-12-14T01:13:23;97040;;;2.4;100.0
27358;BME280;14831;50.474;7.616;2023-12-14T01:18:23;97060;;;2.5;100.0
27358;BME280;14831;50.474;7.616;2023-12-14T01:23:23;97070;;;2.6;100.0
27358;BME280;14831;50.474;7.616;2023-12-14T01:28:23;97070;;;2.7;100.0
27358;BME280;14831;50.474;7.616;2023-12-14T01:33:23;97090;;;2.6;100.0
27358;BME280;14831;50.474;7.616;2023-12-14T01:38:23;97100;;;2.7;100.0
27358;BME280;14831;50.474;7.616;2023-12-14T01:43:23;97120;;;2.8;100.0
27358;BME280;14831;50.474;7.616;2023-12-14T01:48:23;97120;;;2.8;100.0
27358;BME280;14831;50.474;7.616;2023-12-14T01:53:23;97130;;;2.8;100.0
27358;BME280;14831;50.474;7.616;2023-12-14T01:58:23;97140;;;2.9;100.0
27358;BME280;14831;50.474;7.616;2023-12-14T02:03:23;97140;;;2.9;100.0
27358;BME280;14831;50.474;7.616;2023-12-14T02:08:23;97150;;;3.0;100.0
27358;BME280;14831;50.474;7.616;2023-12-14T02:13:23;97160;;;3.0;100.0
27358;BME280;14831;50.474;7.616;2023-12-14T02:18:23;97160;;;3.0;100.0
27358;BME280;14831;50.474;7.616;2023-12-14T02:23:23;97160;;;3.0;100.0
27358;BME280;14831;50.474;7.616;2023-12-14T02:28:23;97160;;;3.1;100.0
27358;BME280;14831;50.474;7.616;2023-12-14T02:33:24;97170;;;3.1;100.0
27358;BME280;14831;50.474;7.616;2023-12-14T02:38:23;97180;;;3.2;100.0
27358;BME280;14831;50.474;7.616;2023-12-14T02:43:23;97180;;;3.2;100.0
27358;BME280;14831;50.474;7.616;2023-12-14T02:48:23;97190;;;3.3;100.0
27358;BME280;14831;50.474;7.616;2023-12-14T02:53:23;97190;;;3.4;100.0
27358;BME280;14831;50.474;7.616;2023-12-14T02:58:23;97200;;;3.5;100.0
27358;BME280;14831;50.474;7.616;2023-12-14T03:03:23;97210;;;3.6;100.0
27358;BME280;14831;50.474;7.616;2023-12-14T03:08:23;97210;;;3.7;100.0
27358;BME280;14831;50.474;7.616;2023-12-14T03:13:23;97220;;;3.7;100.0
27358;BME280;14831;50.474;7.616;2023-12-14T03:18:23;97220;;;3.7;100.0
27358;BME280;14831;50.474;7.616;2023-12-14T03:23:23;97230;;;3.7;100.0
27358;BME280;14831;50.474;7.616;2023-12-14T03:28:23;97240;;;3.8;100.0
27358;BME280;14831;50.474;7.616;2023-12-14T03:33:23;97240;;;3.8;100.0
27358;BME280;14831;50.474;7.616;2023-12-14T03:38:23;97250;;;3.8;100.0
27358;BME280;14831;50.474;7.616;2023-12-14T03:43:23;97270;;;3.9;100.0
27358;BME280;14831;50.474;7.616;2023-12-14T03:48:23;97270;;;3.9;100.0
27358;BME280;14831;50.474;7.616;2023-12-14T03:53:23;97280;;;4.0;100.0
27358;BME280;14831;50.474;7.616;2023-12-14T03:58:23;97280;;;4.0;100.0
27358;BME280;14831;50.474;7.616;2023-12-14T04:03:23;97290;;;4.0;100.0
27358;BME280;14831;50.474;7.616;2023-12-14T04:08:23;97300;;;4.0;100.0
27358;BME280;14831;50.474;7.616;2023-12-14T04:13:23;97310;;;4.1;100.0
27358;BME280;14831;50.474;7.616;2023-12-14T04:18:23;97310;;;4.1;100.0
27358;BME280;14831;50.474;7.616;2023-12-14T04:23:23;97310;;;4.1;100.0
27358;BME280;14831;50.474;7.616;2023-12-14T04:28:23;97320;;;4.1;100.0
27358;BME280;14831;50.474;7.616;2023-12-14T04:33:23;97330;;;4.2;100.0
27358;BME280;14831;50.474;7.616;2023-12-14T04:38:23;97330;;;4.3;100.0
27358;BME280;14831;50.474;7.616;2023-12-14T04:43:23;97350;;;4.4;100.0
27358;BME280;14831;50.474;7.616;2023-12-14T04:48:23;97340;;;4.4;100.0
27358;BME280;14831;50.474;7.616;2023-12-14T04:53:23;97360;;;4.4;100.0
27358;BME280;14831;50.474;7.616;2023-12-14T04:58:23;97370;;;4.4;100.0
27358;BME280;14831;50.474;7.616;2023-12-14T05:03:23;97380;;;4.4;100.0
27358;BME280;14831;50.474;7.616;2023-12-14T05:08:23;97390;;;4.3;100.0
27358;BME280;14831;50.474;7.616;2023-12-14T05:13:23;97400;;;4.3;100.0
27358;BME280;14831;50.474;7.616;2023-12-14T05:18:23;97400;;;4.3;100.0
27358;BME280;14831;50.474;7.616;2023-12-14T05:23:23;97410;;;4.4;100.0
27358;BME280;14831;50.474;7.616;2023-12-14T05:28:23;97410;;;4.4;100.0
27358;BME280;14831;50.474;7.616;2023-12-14T05:33:23;97420;;;4.4;100.0
27358;BME280;14831;50.474;7.616;2023-12-14T05:38:23;97430;;;4.5;100.0
27358;BME280;14831;50.474;7.616;2023-12-14T05:43:23;97430;;;4.5;100.0
27358;BME280;14831;50.474;7.616;2023-12-14T05:48:23;97440;;;4.5;100.0
27358;BME280;14831;50.474;7.616;2023-12-14T05:53:23;97460;;;4.6;100.0
27358;BME280;14831;50.474;7.616;2023-12-14T05:58:23;97460;;;4.6;100.0
27358;BME280;14831;50.474;7.616;2023-12-14T06:03:23;97470;;;4.6;100.0
27358;BME280;14831;50.474;7.616;2023-12-14T06:08:23;97490;;;4.6;100.0
27358;BME280;14831;50.474;7.616;2023-12-14T06:13:23;97500;;;4.6;100.0
27358;BME280;14831;50.474;7.616;2023-12-14T06:18:23;97510;;;4.6;100.0
27358;BME280;14831;50.474;7.616;2023-12-14T06:23:23;97510;;;4.6;100.0
27358;BME280;14831;50.474;7.616;2023-12-14T06:28:23;97520;;;4.6;100.0
27358;BME280;14831;50.474;7.616;2023-12-14T06:33:23;97530;;;4.6;100.0
27358;BME280;14831;50.474;7.616;2023-12-14T06:38:23;97530;;;4.6;100.0
27358;BME280;14831;50.474;7.616;2023-12-14T06:43:23;97540;;;4.6;100.0
27358;BME280;14831;50.474;7.616;2023-12-14T06:48:23;97550;;;4.6;100.0
27358;BME280;14831;50.474;7.616;2023-12-14T06:53:23;97560;;;4.6;100.0
27358;BME280;14831;50.474;7.616;2023-12-14T06:58:23;97570;;;4.6;100.0
27358;BME280;14831;50.474;7.616;2023-12-14T07:03:23;97580;;;4.6;100.0
27358;BME280;14831;50.474;7.616;2023-12-14T07:08:23;97590;;;4.6;100.0
27358;BME280;14831;50.474;7.616;2023-12-14T07:13:23;97600;;;4.6;100.0
27358;BME280;14831;50.474;7.616;2023-12-14T07:18:23;97610;;;4.5;100.0
27358;BME280;14831;50.474;7.616;2023-12-14T07:23:23;97620;;;4.5;100.0
27358;BME280;14831;50.474;7.616;2023-12-14T07:28:23;97640;;;4.5;100.0
27358;BME280;14831;50.474;7.616;2023-12-14T07:33:23;97660;;;4.4;100.0
27358;BME280;14831;50.474;7.616;2023-12-14T07:38:23;97670;;;4.4;100.0
27358;BME280;14831;50.474;7.616;2023-12-14T07:43:23;97670;;;4.4;100.0
27358;BME280;14831;50.474;7.616;2023-12-14T07:48:23;97690;;;4.3;100.0
27358;BME280;14831;50.474;7.616;2023-12-14T07:53:23;97690;;;4.2;100.0
27358;BME280;14831;50.474;7.616;2023-12-14T07:58:23;97700;;;4.2;100.0
27358;BME280;14831;50.474;7.616;2023-12-14T08:03:23;97710;;;4.2;100.0
27358;BME280;14831;50.474;7.616;2023-12-14T08:08:23;97720;;;4.2;100.0
27358;BME280;14831;50.474;7.616;2023-12-14T08:13:23;97730;;;4.2;100.0
27358;BME280;14831;50.474;7.616;2023-12-14T08:18:23;97740;;;4.1;100.0
27358;BME280;14831;50.474;7.616;2023-12-14T08:23:23;97750;;;4.1;100.0
27358;BME280;14831;50.474;7.616;2023-12-14T08:28:23;97750;;;4.1;100.0
27358;BME280;14831;50.474;7.616;2023-12-14T08:33:23;97770;;;4.1;100.0
27358;BME280;14831;50.474;7.616;2023-12-14T08:38:23;97780;;;4.1;100.0
27358;BME280;14831;50.474;7.616;2023-12-14T08:43:24;97790;;;4.1;100.0
27358;BME280;14831;50.474;7.616;2023-12-14T08:48:23;97800;;;4.1;100.0
27358;BME280;14831;50.474;7.616;2023-12-14T08:53:23;97810;;;4.1;100.0
27358;BME280;14831;50.474;7.616;2023-12-14T08:58:23;97820;;;4.1;100.0
27358;BME280;14831;50.474;7.616;2023-12-14T09:03:23;97840;;;4.0;100.0
27358;BME280;14831;50.474;7.616;2023-12-14T09:08:23;97850;;;4.0;100.0
27358;BME280;14831;50.474;7.616;2023-12-14T09:13:23;97860;;;4.0;100.0
27358;BME280;14831;50.474;7.616;2023-12-14T09:18:23;97870;;;3.9;100.0
27358;BME280;14831;50.474;7.616;2023-12-14T09:23:23;97880;;;3.9;100.0
27358;BME280;14831;50.474;7.616;2023-12-14T09:28:23;97890;;;3.8;100.0
27358;BME280;14831;50.474;7.616;2023-12-14T09:33:23;97900;;;3.8;100.0
27358;BME280;14831;50.474;7.616;2023-12-14T09:38:23;97910;;;3.9;100.0
27358;BME280;14831;50.474;7.616;2023-12-14T09:43:23;97920;;;3.9;100.0
27358;BME280;14831;50.474;7.616;2023-12-14T09:48:23;97920;;;3.9;100.0
27358;BME280;14831;50.474;7.616;2023-12-14T09:53:23;97940;;;3.9;100.0
27358;BME280;14831;50.474;7.616;2023-12-14T09:58:23;97930;;;3.9;100.0
27358;BME280;14831;50.474;7.616;2023-12-14T10:03:24;97940;;;3.8;100.0
27358;BME280;14831;50.474;7.616;2023-12-14T10:08:24;97940;;;3.9;100.0
27358;BME280;14831;50.474;7.616;2023-12-14T10:13:35;97940;;;3.9;100.0
27358;BME280;14831;50.474;7.616;2023-12-14T10:18:23;97950;;;3.9;100.0
27358;BME280;14831;50.474;7.616;2023-12-14T10:23:23;97960;;;3.9;100.0
27358;BME280;14831;50.474;7.616;2023-12-14T10:28:23;97970;;;3.9;100.0
27358;BME280;14831;50.474;7.616;2023-12-14T10:33:23;97970;;;3.9;100.0
27358;BME280;14831;50.474;7.616;2023-12-14T10:38:24;97980;;;3.8;100.0
27358;BME280;14831;50.474;7.616;2023-12-14T10:43:23;97990;;;3.9;100.0
27358;BME280;14831;50.474;7.616;2023-12-14T10:48:23;98010;;;3.9;100.0
27358;BME280;14831;50.474;7.616;2023-12-14T10:53:23;98010;;;3.8;100.0
27358;BME280;14831;50.474;7.616;2023-12-14T10:58:23;98010;;;3.8;100.0
27358;BME280;14831;50.474;7.616;2023-12-14T11:03:23;98030;;;3.7;100.0
27358;BME280;14831;50.474;7.616;2023-12-14T11:08:23;98020;;;3.7;100.0
27358;BME280;14831;50.474;7.616;2023-12-14T11:13:23;98030;;;3.7;100.0
27358;BME280;14831;50.474;7.616;2023-12-14T11:18:25;98030;;;3.7;100.0
27358;BME280;14831;50.474;7.616;2023-12-14T11:23:31;98040;;;3.7;100.0
27358;BME280;14831;50.474;7.616;2023-12-14T11:28:23;98050;;;3.7;100.0
27358;BME280;14831;50.474;7.616;2023-12-14T11:33:23;98060;;;3.7;100.0
27358;BME280;14831;50.474;7.616;2023-12-14T11:38:24;98070;;;3.7;100.0
27358;BME280;14831;50.474;7.616;2023-12-14T11:43:23;98080;;;3.7;100.0
27358;BME280;14831;50.474;7.616;2023-12-14T11:48:23;98070;;;3.7;100.0
27358;BME280;14831;50.474;7.616;2023-12-14T11:53:23;98080;;;3.7;100.0
27358;BME280;14831;50.474;7.616;2023-12-14T11:58:24;98090;;;3.7;100.0
27358;BME280;14831;50.474;7.616;2023-12-14T12:03:23;98090;;;3.7;100.0
27358;BME280;14831;50.474;7.616;2023-12-14T12:08:23;98100;;;3.7;100.0
27358;BME280;14831;50.474;7.616;2023-12-14T12:13:23;98090;;;3.6;100.0
27358;BME280;14831;50.474;7.616;2023-12-14T12:18:24;98100;;;3.6;100.0
27358;BME280;14831;50.474;7.616;2023-12-14T12:23:23;98110;;;3.6;100.0
27358;BME280;14831;50.474;7.616;2023-12-14T12:28:23;98100;;;3.6;100.0
27358;BME280;14831;50.474;7.616;2023-12-14T12:33:23;98100;;;3.5;100.0
27358;BME280;14831;50.474;7.616;2023-12-14T12:38:23;98110;;;3.5;100.0
27358;BME280;14831;50.474;7.616;2023-12-14T12:43:23;98110;;;3.5;100.0
27358;BME280;14831;50.474;7.616;2023-12-14T12:48:23;98120;;;3.4;100.0
27358;BME280;14831;50.474;7.616;2023-12-14T12:53:23;98120;;;3.4;100.0
27358;BME280;14831;50.474;7.616;2023-12-14T12:58:23;98120;;;3.4;100.0
27358;BME280;14831;50.474;7.616;2023-12-14T13:03:23;98130;;;3.4;100.0
27358;BME280;14831;50.474;7.616;2023-12-14T13:08:23;98130;;;3.4;100.0
27358;BME280;14831;50.474;7.616;2023-12-14T13:13:23;98130;;;3.4;100.0
27358;BME280;14831;50.474;7.616;2023-12-14T13:18:24;98130;;;3.3;100.0
27358;BME280;14831;50.474;7.616;2023-12-14T13:23:23;98140;;;3.4;100.0
27358;BME280;14831;50.474;7.616;2023-12-14T13:28:23;98150;;;3.3;100.0
27358;BME280;14831;50.474;7.616;2023-12-14T13:33:23;98150;;;3.4;100.0
27358;BME280;14831;50.474;7.616;2023-12-14T13:38:23;98160;;;3.4;100.0
27358;BME280;14831;50.474;7.616;2023-12-14T13:43:23;98170;;;3.3;100.0
27358;BME280;14831;50.474;7.616;2023-12-14T13:48:23;98180;;;3.3;100.0
27358;BME280;14831;50.474;7.616;2023-12-14T13:53:23;98190;;;3.3;100.0
27358;BME280;14831;50.474;7.616;2023-12-14T13:58:23;98200;;;3.2;100.0
27358;BME280;14831;50.474;7.616;2023-12-14T14:03:23;98210;;;3.2;100.0
27358;BME280;14831;50.474;7.616;2023-12-14T14:08:23;98230;;;3.1;100.0
27358;BME280;14831;50.474;7.616;2023-12-14T14:13:23;98240;;;3.1;100.0
27358;BME280;14831;50.474;7.616;2023-12-14T14:18:23;98240;;;3.0;100.0
27358;BME280;14831;50.474;7.616;2023-12-14T14:23:23;98260;;;3.0;100.0
27358;BME280;14831;50.474;7.616;2023-12-14T14:28:23;98270;;;3.0;100.0
27358;BME280;14831;50.474;7.616;2023-12-14T14:33:23;98280;;;3.0;100.0
27358;BME280;14831;50.474;7.616;2023-12-14T14:38:24;98290;;;3.0;100.0
27358;BME280;14831;50.474;7.616;2023-12-14T14:43:23;98300;;;3.0;100.0
27358;BME280;14831;50.474;7.616;2023-12-14T14:48:23;98310;;;3.0;100.0
27358;BME280;14831;50.474;7.616;2023-12-14T14:53:23;98320;;;3.0;100.0
27358;BME280;14831;50.474;7.616;2023-12-14T14:58:23;98320;;;2.9;100.0
27358;BME280;14831;50.474;7.616;2023-12-14T15:03:23;98340;;;2.9;100.0
27358;BME280;14831;50.474;7.616;2023-12-14T15:08:23;98350;;;2.9;100.0
27358;BME280;14831;50.474;7.616;2023-12-14T15:13:23;98360;;;2.9;100.0
27358;BME280;14831;50.474;7.616;2023-12-14T15:18:23;98370;;;2.8;100.0
27358;BME280;14831;50.474;7.616;2023-12-14T15:23:23;98380;;;2.8;100.0
27358;BME280;14831;50.474;7.616;2023-12-14T15:28:23;98380;;;2.8;100.0
27358;BME280;14831;50.474;7.616;2023-12-14T15:33:23;98390;;;2.8;100.0
27358;BME280;14831;50.474;7.616;2023-12-14T15:38:23;98390;;;2.7;100.0
27358;BME280;14831;50.474;7.616;2023-12-14T15:43:23;98400;;;2.7;100.0
27358;BME280;14831;50.474;7.616;2023-12-14T15:48:23;98400;;;2.7;100.0
27358;BME280;14831;50.474;7.616;2023-12-14T15:53:23;98410;;;2.7;100.0
27358;BME280;14831;50.474;7.616;2023-12-14T15:58:23;98420;;;2.7;100.0
27358;BME280;14831;50.474;7.616;2023-12-14T16:03:23;98430;;;2.8;100.0
27358;BME280;14831;50.474;7.616;2023-12-14T16:08:23;98430;;;2.7;100.0
27358;BME280;14831;50.474;7.616;2023-12-14T16:13:23;98440;;;2.7;100.0
27358;BME280;14831;50.474;7.616;2023-12-14T16:18:23;98450;;;2.7;100.0
27358;BME280;14831;50.474;7.616;2023-12-14T16:23:23;98450;;;2.7;100.0
27358;BME280;14831;50.474;7.616;2023-12-14T16:28:23;98460;;;2.7;100.0
27358;BME280;14831;50.474;7.616;2023-12-14T16:33:23;98470;;;2.7;100.0
27358;BME280;14831;50.474;7.616;2023-12-14T16:38:23;98470;;;2.7;100.0
27358;BME280;14831;50.474;7.616;2023-12-14T16:43:23;98480;;;2.7;100.0
27358;BME280;14831;50.474;7.616;2023-12-14T16:48:23;98480;;;2.6;100.0
27358;BME280;14831;50.474;7.616;2023-12-14T16:53:23;98500;;;2.6;100.0
27358;BME280;14831;50.474;7.616;2023-12-14T16:58:23;98520;;;2.6;100.0
27358;BME280;14831;50.474;7.616;2023-12-14T17:03:23;98520;;;2.6;100.0
27358;BME280;14831;50.474;7.616;2023-12-14T17:08:23;98530;;;2.6;100.0
27358;BME280;14831;50.474;7.616;2023-12-14T17:13:23;98550;;;2.5;100.0
27358;BME280;14831;50.474;7.616;2023-12-14T17:18:24;98550;;;2.5;100.0
27358;BME280;14831;50.474;7.616;2023-12-14T17:23:23;98550;;;2.5;100.0
27358;BME280;14831;50.474;7.616;2023-12-14T17:28:23;98560;;;2.5;100.0
27358;BME280;14831;50.474;7.616;2023-12-14T17:33:23;98560;;;2.5;100.0
27358;BME280;14831;50.474;7.616;2023-12-14T17:38:23;98580;;;2.5;100.0
27358;BME280;14831;50.474;7.616;2023-12-14T17:43:23;98590;;;2.5;100.0
27358;BME280;14831;50.474;7.616;2023-12-14T17:48:23;98610;;;2.5;100.0
27358;BME280;14831;50.474;7.616;2023-12-14T17:53:23;98620;;;2.5;100.0
27358;BME280;14831;50.474;7.616;2023-12-14T17:58:23;98620;;;2.5;100.0
27358;BME280;14831;50.474;7.616;2023-12-14T18:03:23;98620;;;2.5;100.0
27358;BME280;14831;50.474;7.616;2023-12-14T18:08:23;98630;;;2.4;100.0
27358;BME280;14831;50.474;7.616;2023-12-14T18:13:24;98630;;;2.5;100.0
27358;BME280;14831;50.474;7.616;2023-12-14T18:18:23;98640;;;2.5;100.0
27358;BME280;14831;50.474;7.616;2023-12-14T18:23:23;98640;;;2.5;100.0
27358;BME280;14831;50.474;7.616;2023-12-14T18:28:23;98650;;;2.4;100.0
27358;BME280;14831;50.474;7.616;2023-12-14T18:33:23;98670;;;2.3;100.0
27358;BME280;14831;50.474;7.616;2023-12-14T18:38:23;98670;;;2.2;100.0
27358;BME280;14831;50.474;7.616;2023-12-14T18:43:23;98690;;;2.2;100.0
27358;BME280;14831;50.474;7.616;2023-12-14T18:48:23;98700;;;2.2;100.0
27358;BME280;14831;50.474;7.616;2023-12-14T18:53:23;98700;;;2.2;100.0
27358;BME280;14831;50.474;7.616;2023-12-14T18:58:23;98720;;;2.2;100.0
27358;BME280;14831;50.474;7.616;2023-12-14T19:03:23;98710;;;2.1;100.0
27358;BME280;14831;50.474;7.616;2023-12-14T19:08:23;98720;;;2.1;100.0
27358;BME280;14831;50.474;7.616;2023-12-14T19:13:23;98730;;;2.1;100.0
27358;BME280;14831;50.474;7.616;2023-12-14T19:18:23;98750;;;2.1;100.0
27358;BME280;14831;50.474;7.616;2023-12-14T19:23:23;98760;;;2.0;100.0
27358;BME280;14831;50.474;7.616;2023-12-14T19:28:23;98760;;;2.1;100.0
27358;BME280;14831;50.474;7.616;2023-12-14T19:33:23;98770;;;2.0;100.0
27358;BME280;14831;50.474;7.616;2023-12-14T19:38:23;98780;;;2.1;100.0
27358;BME280;14831;50.474;7.616;2023-12-14T19:43:23;98790;;;2.0;100.0
27358;BME280;14831;50.474;7.616;2023-12-14T19:48:23;98790;;;2.0;100.0
27358;BME280;14831;50.474;7.616;2023-12-14T19:53:23;98790;;;1.9;100.0
27358;BME280;14831;50.474;7.616;2023-12-14T19:58:23;98810;;;1.9;100.0
27358;BME280;14831;50.474;7.616;2023-12-14T20:03:23;98820;;;1.9;99.9
27358;BME280;14831;50.474;7.616;2023-12-14T20:08:23;98820;;;1.9;100.0
27358;BME280;14831;50.474;7.616;2023-12-14T20:13:23;98830;;;1.9;100.0
27358;BME280;14831;50.474;7.616;2023-12-14T20:18:23;98830;;;1.9;100.0
27358;BME280;14831;50.474;7.616;2023-12-14T20:23:23;98830;;;1.8;100.0
27358;BME280;14831;50.474;7.616;2023-12-14T20:28:23;98830;;;1.7;100.0
27358;BME280;14831;50.474;7.616;2023-12-14T20:33:23;98840;;;1.7;100.0
27358;BME280;14831;50.474;7.616;2023-12-14T20:38:23;98840;;;1.6;100.0
27358;BME280;14831;50.474;7.616;2023-12-14T20:43:23;98840;;;1.5;100.0
27358;BME280;14831;50.474;7.616;2023-12-14T20:48:23;98850;;;1.4;100.0
27358;BME280;14831;50.474;7.616;2023-12-14T20:53:23;98850;;;1.3;100.0
27358;BME280;14831;50.474;7.616;2023-12-14T20:58:23;98850;;;1.3;100.0
27358;BME280;14831;50.474;7.616;2023-12-14T21:03:23;98850;;;1.3;100.0
27358;BME280;14831;50.474;7.616;2023-12-14T21:08:23;98850;;;1.3;100.0
27358;BME280;14831;50.474;7.616;2023-12-14T21:13:23;98860;;;1.3;100.0
27358;BME280;14831;50.474;7.616;2023-12-14T21:18:23;98870;;;1.2;100.0
27358;BME280;14831;50.474;7.616;2023-12-14T21:23:23;98870;;;1.0;100.0
27358;BME280;14831;50.474;7.616;2023-12-14T21:28:23;98870;;;0.8;100.0
27358;BME280;14831;50.474;7.616;2023-12-14T21:33:24;98880;;;0.7;100.0
27358;BME280;14831;50.474;7.616;2023-12-14T21:38:23;98880;;;0.6;100.0
27358;BME280;14831;50.474;7.616;2023-12-14T21:43:23;98900;;;0.7;100.0
27358;BME280;14831;50.474;7.616;2023-12-14T21:48:23;98900;;;0.7;100.0
27358;BME280;14831;50.474;7.616;2023-12-14T21:53:23;98910;;;0.7;100.0
27358;BME280;14831;50.474;7.616;2023-12-14T21:58:23;98910;;;0.8;100.0
27358;BME280;14831;50.474;7.616;2023-12-14T22:03:23;98920;;;0.8;100.0
27358;BME280;14831;50.474;7.616;2023-12-14T22:08:23;98930;;;0.8;100.0
27358;BME280;14831;50.474;7.616;2023-12-14T22:13:23;98940;;;0.9;100.0
27358;BME280;14831;50.474;7.616;2023-12-14T22:18:23;98930;;;0.9;100.0
27358;BME280;14831;50.474;7.616;2023-12-14T22:23:23;98950;;;1.0;100.0
27358;BME280;14831;50.474;7.616;2023-12-14T22:28:23;98950;;;1.0;100.0
27358;BME280;14831;50.474;7.616;2023-12-14T22:33:23;98960;;;1.1;100.0
27358;BME280;14831;50.474;7.616;2023-12-14T22:38:23;98970;;;1.1;100.0
27358;BME280;14831;50.474;7.616;2023-12-14T22:43:23;98970;;;1.2;100.0
27358;BME280;14831;50.474;7.616;2023-12-14T22:48:23;98980;;;1.2;100.0
27358;BME280;14831;50.474;7.616;2023-12-14T22:53:23;98990;;;1.3;100.0
27358;BME280;14831;50.474;7.616;2023-12-14T22:58:23;98990;;;1.3;100.0
27358;BME280;14831;50.474;7.616;2023-12-14T23:03:23;99000;;;1.3;100.0
27358;BME280;14831;50.474;7.616;2023-12-14T23:08:23;99010;;;1.4;100.0
27358;BME280;14831;50.474;7.616;2023-12-14T23:13:23;99020;;;1.4;100.0
27358;BME280;14831;50.474;7.616;2023-12-14T23:18:23;99020;;;1.4;100.0
27358;BME280;14831;50.474;7.616;2023-12-14T23:23:23;99030;;;1.5;100.0
27358;BME280;14831;50.474;7.616;2023-12-14T23:28:24;99030;;;1.5;100.0
27358;BME280;14831;50.474;7.616;2023-12-14T23:33:23;99040;;;1.5;100.0
27358;BME280;14831;50.474;7.616;2023-12-14T23:38:23;99050;;;1.5;100.0
27358;BME280;14831;50.474;7.616;2023-12-14T23:43:23;99040;;;1.5;100.0
27358;BME280;14831;50.474;7.616;2023-12-14T23:48:23;99050;;;1.5;100.0
27358;BME280;14831;50.474;7.616;2023-12-14T23:53:23;99040;;;1.5;100.0
27358;BME280;14831;50.474;7.616;2023-12-14T23:58:23;99050;;;1.5;100.0
